createdAt,value
2023-01-26T00:00:27.143Z,23.96
2023-01-26T00:02:58.788Z,24.14
2023-01-26T00:05:31.813Z,24.13
2023-01-26T00:08:10.057Z,24.32
2023-01-26T00:10:50.839Z,24.61
2023-01-26T00:13:24.482Z,25.03
2023-01-26T01:33:07.018Z,23.57
2023-01-26T02:00:20.497Z,24.60
2023-01-26T02:03:26.950Z,23.96
2023-01-26T02:06:26.701Z,24.22
2023-01-26T02:09:37.893Z,25.10
2023-01-26T02:12:29.565Z,25.20
2023-01-26T02:15:49.511Z,24.48
2023-01-26T02:18:23.508Z,25.46
2023-01-26T02:21:00.807Z,25.99
2023-01-26T02:23:58.179Z,26.62
2023-01-26T02:26:39.803Z,25.83
2023-01-26T02:29:16.619Z,26.51
2023-01-26T02:31:49.855Z,26.25
2023-01-26T02:34:19.936Z,25.68
2023-01-26T02:40:24.656Z,26.20
2023-01-26T02:43:10.781Z,26.67
2023-01-26T02:45:50.625Z,27.18
2023-01-26T02:48:35.555Z,28.35
2023-01-26T02:51:22.349Z,27.29
2023-01-26T02:54:48.707Z,26.76
2023-01-26T03:02:26.298Z,27.57
2023-01-26T03:10:34.725Z,28.20
2023-01-26T03:17:34.566Z,28.26
2023-01-26T03:20:51.665Z,28.45
2023-01-26T03:24:30.190Z,27.81
2023-01-26T03:31:32.065Z,28.64
2023-01-26T03:35:57.858Z,28.04
2023-01-26T03:43:32.355Z,29.57
2023-01-26T03:49:54.308Z,29.08
2023-01-26T03:52:29.733Z,29.26
2023-01-26T03:55:34.950Z,28.94
2023-01-26T03:58:11.398Z,28.21
2023-01-26T04:00:52.918Z,28.74
2023-01-26T04:03:56.205Z,27.66
2023-01-26T04:10:25.647Z,27.15
2023-01-26T04:14:08.101Z,27.61
2023-01-26T04:16:58.287Z,27.05
2023-01-26T04:20:01.771Z,26.80
2023-01-26T04:22:56.787Z,26.83
2023-01-26T04:25:50.232Z,26.44
2023-01-26T04:29:05.400Z,26.50
2023-01-26T04:32:00.771Z,27.61
2023-01-26T04:35:17.530Z,28.49
2023-01-26T04:39:01.150Z,30.32
2023-01-26T04:41:44.623Z,33.84
2023-01-26T04:51:15.036Z,35.66
2023-01-26T04:54:30.421Z,35.76
2023-01-26T04:58:20.740Z,35.92
2023-01-26T05:14:30.013Z,35.06
2023-01-26T05:17:23.050Z,36.06
2023-01-26T05:20:25.032Z,35.21
2023-01-26T05:23:17.490Z,34.65
2023-01-26T05:26:10.311Z,35.46
2023-01-26T05:28:51.816Z,32.50
2023-01-26T05:31:25.419Z,33.48
2023-01-26T05:33:59.864Z,32.26
2023-01-26T05:36:31.696Z,33.08
2023-01-26T05:39:02.656Z,31.36
2023-01-26T05:41:34.699Z,31.40
2023-01-26T05:44:23.824Z,30.20
2023-01-26T05:47:02.159Z,30.57
2023-01-26T05:49:32.982Z,29.87
2023-01-26T05:52:03.364Z,29.44
2023-01-26T05:54:33.727Z,29.79
2023-01-26T05:57:03.601Z,28.98
2023-01-26T05:59:34.940Z,28.00
2023-01-26T06:02:08.506Z,26.27
2023-01-26T06:04:39.301Z,25.67
2023-01-26T06:07:09.220Z,25.64
2023-01-26T06:09:48.059Z,25.45
2023-01-26T06:12:44.145Z,24.82
2023-01-26T06:15:39.417Z,25.38
2023-01-26T06:18:12.005Z,25.76
2023-01-26T06:20:44.768Z,26.71
2023-01-26T06:23:14.883Z,26.03
2023-01-26T06:25:47.703Z,26.93
2023-01-26T06:28:19.436Z,26.05
2023-01-26T06:30:49.523Z,27.06
2023-01-26T06:33:22.461Z,27.54
2023-01-26T06:35:54.734Z,27.65
2023-01-26T06:38:25.192Z,27.30
2023-01-26T06:40:56.380Z,27.29
2023-01-26T06:43:26.277Z,28.02
2023-01-26T06:45:58.670Z,29.27
2023-01-26T06:48:33.364Z,29.82
2023-01-26T06:51:28.874Z,28.77
2023-01-26T06:54:00.805Z,28.33
2023-01-26T06:57:06.148Z,28.98
2023-01-26T06:59:41.589Z,28.01
2023-01-26T07:02:37.533Z,28.26
2023-01-26T07:05:12.793Z,28.31
2023-01-26T07:07:42.793Z,29.01
2023-01-26T07:10:13.895Z,28.96
2023-01-26T07:12:44.608Z,29.25
2023-01-26T07:15:15.940Z,29.71
2023-01-26T07:17:45.800Z,29.74
2023-01-26T07:20:18.950Z,28.86
2023-01-26T07:22:50.052Z,29.69
2023-01-26T07:25:20.062Z,29.01
2023-01-26T07:27:49.928Z,28.97
2023-01-26T07:30:20.281Z,29.07
2023-01-26T07:32:50.117Z,27.91
2023-01-26T07:35:22.631Z,28.26
2023-01-26T07:37:52.583Z,30.05
2023-01-26T07:40:22.724Z,29.10
2023-01-26T07:42:52.708Z,30.32
2023-01-26T07:45:26.805Z,29.68
2023-01-26T07:47:57.492Z,29.96
2023-01-26T07:50:30.265Z,30.17
2023-01-26T07:53:03.217Z,30.62
2023-01-26T07:55:33.103Z,30.16
2023-01-26T07:58:03.015Z,30.49
2023-01-26T08:00:33.140Z,29.38
2023-01-26T08:03:03.119Z,30.02
2023-01-26T08:05:35.676Z,29.68
2023-01-26T08:08:05.903Z,30.40
2023-01-26T08:10:35.768Z,28.97
2023-01-26T08:13:05.896Z,28.69
2023-01-26T08:15:35.766Z,28.92
2023-01-26T08:18:06.041Z,27.79
2023-01-26T08:20:39.536Z,28.45
2023-01-26T08:23:09.394Z,28.55
2023-01-26T08:25:39.288Z,28.78
2023-01-26T08:28:09.138Z,28.78
2023-01-26T08:30:39.451Z,28.33
2023-01-26T08:33:09.525Z,28.61
2023-01-26T08:35:41.986Z,28.65
2023-01-26T08:38:11.859Z,27.87
2023-01-26T08:40:41.658Z,28.56
2023-01-26T08:43:11.477Z,28.18
2023-01-26T08:45:41.349Z,27.79
2023-01-26T08:48:12.202Z,28.41
2023-01-26T08:50:45.054Z,26.98
2023-01-26T08:53:15.085Z,27.60
2023-01-26T08:55:44.959Z,26.09
2023-01-26T08:58:14.872Z,26.01
2023-01-26T09:00:44.797Z,24.10
2023-01-26T09:03:15.300Z,24.18
2023-01-26T09:05:47.749Z,23.97
2023-01-26T09:08:17.716Z,23.74
2023-01-26T09:10:47.799Z,24.78
2023-01-26T09:13:17.663Z,22.37
2023-01-26T09:15:47.490Z,21.60
2023-01-26T09:18:18.123Z,21.75
2023-01-26T09:20:51.260Z,22.70
2023-01-26T09:23:21.177Z,22.23
2023-01-26T09:25:56.039Z,22.12
2023-01-26T09:28:25.907Z,21.29
2023-01-26T09:30:55.830Z,21.37
2023-01-26T09:33:26.897Z,21.29
2023-01-26T09:35:59.344Z,20.34
2023-01-26T09:38:29.212Z,21.22
2023-01-26T09:41:09.497Z,21.10
2023-01-26T09:43:44.055Z,18.70
2023-01-26T09:46:24.992Z,16.06
2023-01-26T09:49:08.842Z,15.55
2023-01-26T09:51:46.239Z,17.44
2023-01-26T09:54:28.080Z,18.99
2023-01-26T09:56:58.881Z,20.05
2023-01-26T09:59:37.659Z,21.57
2023-01-26T10:02:26.116Z,21.75
2023-01-26T10:05:03.406Z,22.82
2023-01-26T10:07:35.882Z,22.78
2023-01-26T10:10:07.457Z,23.69
2023-01-26T10:12:40.948Z,21.91
2023-01-26T10:15:28.390Z,20.60
2023-01-26T10:17:59.770Z,20.89
2023-01-26T10:20:34.370Z,21.63
2023-01-26T10:23:16.417Z,21.71
2023-01-26T10:25:48.945Z,21.09
2023-01-26T10:28:21.982Z,21.65
2023-01-26T10:30:53.172Z,20.18
2023-01-26T10:33:29.274Z,19.49
2023-01-26T10:35:59.367Z,19.51
2023-01-26T10:38:42.659Z,17.28
2023-01-26T10:41:27.803Z,16.65
2023-01-26T10:44:00.313Z,17.50
2023-01-26T10:46:36.133Z,17.11
2023-01-26T10:49:18.995Z,16.12
2023-01-26T10:52:09.045Z,16.40
2023-01-26T10:54:43.912Z,16.95
2023-01-26T10:57:21.980Z,17.77
2023-01-26T10:59:56.247Z,17.67
2023-01-26T11:02:30.364Z,17.32
2023-01-26T11:05:24.805Z,17.41
2023-01-26T11:08:00.244Z,16.93
2023-01-26T11:10:35.706Z,16.93
2023-01-26T11:13:11.716Z,16.99
2023-01-26T11:15:44.654Z,15.48
2023-01-26T11:18:25.386Z,15.76
2023-01-26T11:21:03.490Z,14.76
2023-01-26T11:23:55.450Z,15.13
2023-01-26T11:27:01.047Z,15.04
2023-01-26T11:29:52.305Z,14.07
2023-01-26T11:32:33.207Z,13.74
2023-01-26T11:35:18.422Z,14.27
2023-01-26T11:37:53.895Z,14.11
2023-01-26T11:40:35.450Z,14.20
2023-01-26T11:43:32.748Z,13.97
2023-01-26T11:46:27.244Z,13.98
2023-01-26T11:49:12.759Z,13.07
2023-01-26T11:51:57.716Z,13.43
2023-01-26T11:54:46.612Z,13.57
2023-01-26T11:57:29.163Z,13.29
2023-01-26T12:00:28.653Z,13.53
2023-01-26T12:03:06.628Z,13.83
2023-01-26T12:05:46.138Z,13.37
2023-01-26T12:08:24.937Z,13.23
2023-01-26T12:11:22.732Z,12.74
2023-01-26T12:14:10.471Z,12.86
2023-01-26T12:17:02.141Z,12.59
2023-01-26T12:19:48.234Z,12.71
2023-01-26T12:22:25.650Z,12.60
2023-01-26T12:25:18.547Z,12.26
2023-01-26T12:27:58.279Z,11.87
2023-01-26T12:30:39.428Z,11.51
2023-01-26T12:33:13.303Z,12.33
2023-01-26T12:35:59.547Z,12.01
2023-01-26T12:38:45.860Z,12.30
2023-01-26T12:41:26.412Z,12.75
2023-01-26T12:44:13.519Z,12.14
2023-01-26T12:46:57.217Z,12.12
2023-01-26T12:49:38.335Z,12.04
2023-01-26T12:52:15.115Z,12.70
2023-01-26T12:54:51.976Z,12.25
2023-01-26T12:57:30.267Z,12.39
2023-01-26T13:00:09.025Z,12.36
2023-01-26T13:02:40.780Z,11.89
2023-01-26T13:05:27.803Z,12.00
2023-01-26T13:07:57.925Z,11.93
2023-01-26T13:10:46.478Z,11.60
2023-01-26T13:13:33.011Z,12.23
2023-01-26T13:16:32.917Z,11.87
2023-01-26T13:19:04.493Z,12.12
2023-01-26T13:21:47.889Z,11.65
2023-01-26T13:24:45.049Z,11.33
2023-01-26T13:27:36.698Z,12.02
2023-01-26T13:30:31.655Z,12.01
2023-01-26T13:33:15.414Z,11.49
2023-01-26T13:35:48.595Z,11.80
2023-01-26T13:38:29.062Z,11.98
2023-01-26T13:40:59.106Z,12.24
2023-01-26T13:43:39.850Z,12.50
2023-01-26T13:46:24.412Z,12.08
2023-01-26T13:48:58.866Z,12.41
2023-01-26T13:51:31.676Z,12.09
2023-01-26T13:54:06.550Z,12.26
2023-01-26T13:56:39.062Z,11.62
2023-01-26T13:59:13.218Z,11.56
2023-01-26T14:01:45.435Z,12.25
2023-01-26T14:04:21.498Z,11.77
2023-01-26T14:06:56.963Z,12.53
2023-01-26T14:09:30.764Z,12.12
2023-01-26T14:12:03.920Z,12.17
2023-01-26T14:14:39.131Z,12.41
2023-01-26T14:17:29.283Z,12.28
2023-01-26T14:20:03.873Z,11.70
2023-01-26T14:22:33.745Z,10.87
2023-01-26T14:25:03.622Z,11.38
2023-01-26T14:27:39.210Z,11.03
2023-01-26T14:30:25.483Z,11.30
2023-01-26T14:33:06.643Z,11.53
2023-01-26T14:35:39.193Z,11.98
2023-01-26T14:38:19.919Z,12.36
2023-01-26T14:40:51.531Z,12.93
2023-01-26T14:43:22.149Z,13.47
2023-01-26T14:45:58.255Z,14.12
2023-01-26T14:48:35.426Z,13.74
2023-01-26T14:51:18.705Z,13.32
2023-01-26T14:53:53.092Z,13.14
2023-01-26T14:56:32.140Z,13.94
2023-01-26T14:59:02.343Z,14.98
2023-01-26T15:01:32.607Z,14.51
2023-01-26T15:04:07.608Z,14.93
2023-01-26T15:06:40.232Z,15.88
2023-01-26T15:09:25.845Z,15.96
2023-01-26T15:12:10.088Z,16.39
2023-01-26T15:14:49.765Z,17.08
2023-01-26T15:17:41.674Z,16.86
2023-01-26T15:20:40.968Z,17.13
2023-01-26T15:23:29.312Z,17.36
2023-01-26T15:26:06.495Z,17.57
2023-01-26T15:28:37.281Z,17.59
2023-01-26T15:31:08.604Z,17.58
2023-01-26T15:33:47.337Z,17.93
2023-01-26T15:36:37.243Z,17.85
2023-01-26T15:39:17.836Z,18.21
2023-01-26T15:42:01.829Z,19.00
2023-01-26T15:44:32.366Z,18.33
2023-01-26T15:47:02.313Z,18.50
2023-01-26T15:49:32.187Z,18.23
2023-01-26T15:52:02.097Z,18.61
2023-01-26T15:54:34.613Z,18.38
2023-01-26T15:57:04.419Z,18.59
2023-01-26T15:59:34.391Z,18.63
2023-01-26T16:02:04.399Z,18.22
2023-01-26T16:04:34.349Z,18.06
2023-01-26T16:07:04.302Z,18.25
2023-01-26T16:09:36.841Z,18.71
2023-01-26T16:12:07.186Z,18.17
2023-01-26T16:14:37.035Z,19.01
2023-01-26T16:17:15.252Z,18.88
2023-01-26T16:19:45.250Z,19.29
2023-01-26T16:22:16.243Z,20.09
2023-01-26T16:24:49.648Z,19.63
2023-01-26T16:27:21.114Z,19.44
2023-01-26T16:29:50.971Z,19.96
2023-01-26T16:32:30.512Z,19.42
2023-01-26T16:35:00.448Z,19.72
2023-01-26T16:37:30.396Z,20.25
2023-01-26T16:40:03.699Z,21.15
2023-01-26T16:42:36.132Z,21.64
2023-01-26T16:45:06.626Z,21.12
2023-01-26T16:47:36.512Z,20.92
2023-01-26T16:50:06.716Z,21.03
2023-01-26T16:52:37.864Z,20.93
2023-01-26T16:55:13.855Z,20.69
2023-01-26T16:57:45.196Z,20.03
2023-01-26T17:00:18.892Z,21.26
2023-01-26T17:02:52.910Z,20.81
2023-01-26T17:05:25.128Z,22.35
2023-01-26T17:07:55.035Z,22.40
2023-01-26T17:10:27.493Z,23.74
2023-01-26T17:12:57.379Z,22.60
2023-01-26T17:15:28.311Z,22.82
2023-01-26T17:17:58.447Z,23.31
2023-01-26T17:20:28.922Z,22.22
2023-01-26T17:22:58.797Z,22.24
2023-01-26T17:25:31.255Z,21.80
2023-01-26T17:28:01.343Z,21.48
2023-01-26T17:30:31.703Z,21.19
2023-01-26T17:33:02.069Z,20.35
2023-01-26T17:35:31.986Z,21.01
2023-01-26T17:38:01.873Z,21.55
2023-01-26T17:40:35.295Z,20.78
2023-01-26T17:43:05.306Z,19.61
2023-01-26T17:45:35.285Z,18.94
2023-01-26T17:48:05.156Z,19.29
2023-01-26T17:50:35.020Z,19.70
2023-01-26T17:53:05.316Z,20.57
2023-01-26T17:55:38.736Z,19.72
2023-01-26T17:58:10.793Z,20.45
2023-01-26T18:00:40.864Z,21.26
2023-01-26T18:03:12.613Z,21.76
2023-01-26T18:05:43.169Z,22.09
2023-01-26T18:08:13.049Z,21.52
2023-01-26T18:10:45.537Z,20.22
2023-01-26T18:13:15.872Z,19.94
2023-01-26T18:15:47.023Z,19.66
2023-01-26T18:18:16.902Z,20.39
2023-01-26T18:20:46.718Z,20.19
2023-01-26T18:23:16.575Z,21.69
2023-01-26T18:25:49.396Z,21.91
2023-01-26T18:28:20.061Z,22.00
2023-01-26T18:30:50.059Z,23.53
2023-01-26T18:33:20.016Z,22.71
2023-01-26T18:35:49.958Z,22.72
2023-01-26T18:38:19.826Z,24.05
2023-01-26T18:40:52.283Z,24.03
2023-01-26T18:43:22.297Z,23.45
2023-01-26T18:45:52.192Z,23.50
2023-01-26T18:48:22.034Z,24.36
2023-01-26T18:50:52.095Z,24.32
2023-01-26T18:53:22.083Z,25.25
2023-01-26T18:55:55.375Z,25.15
2023-01-26T18:58:25.700Z,24.83
2023-01-26T19:00:55.643Z,24.78
2023-01-26T19:03:25.679Z,25.39
2023-01-26T19:05:55.858Z,24.53
2023-01-26T19:08:25.848Z,24.71
2023-01-26T19:10:59.056Z,24.94
2023-01-26T19:13:28.967Z,25.25
2023-01-26T19:15:58.942Z,25.75
2023-01-26T19:18:29.509Z,24.90
2023-01-26T19:20:59.946Z,25.15
2023-01-26T19:23:30.908Z,25.04
2023-01-26T19:26:03.407Z,24.60
2023-01-26T19:28:33.247Z,25.56
2023-01-26T19:31:06.463Z,25.12
2023-01-26T19:33:36.403Z,25.08
2023-01-26T19:36:08.105Z,25.00
2023-01-26T19:38:40.950Z,24.79
2023-01-26T19:41:13.821Z,24.92
2023-01-26T19:43:44.451Z,24.32
2023-01-26T19:46:16.037Z,24.92
2023-01-26T19:48:46.478Z,24.69
2023-01-26T19:51:19.174Z,24.91
2023-01-26T19:53:51.471Z,25.22
2023-01-26T19:56:27.089Z,24.63
2023-01-26T19:58:59.286Z,27.38
2023-01-26T20:01:31.336Z,25.89
2023-01-26T20:04:03.976Z,25.90
2023-01-26T20:06:37.025Z,25.72
2023-01-26T20:09:09.158Z,25.85
2023-01-26T20:11:41.723Z,26.10
2023-01-26T20:14:14.363Z,25.23
2023-01-26T20:16:44.910Z,26.21
2023-01-26T20:19:16.057Z,25.61
2023-01-26T20:21:46.001Z,25.94
2023-01-26T20:24:18.054Z,25.69
2023-01-26T20:26:51.571Z,25.66
2023-01-26T20:29:22.972Z,26.37
2023-01-26T20:31:53.363Z,25.98
2023-01-26T20:34:23.857Z,25.50
2023-01-26T20:36:57.726Z,25.82
2023-01-26T20:39:27.805Z,26.03
2023-01-26T20:42:00.440Z,25.65
2023-01-26T20:44:30.578Z,26.14
2023-01-26T20:47:00.643Z,26.55
2023-01-26T20:49:30.683Z,25.62
2023-01-26T20:52:00.714Z,24.05
2023-01-26T20:54:31.123Z,24.12
2023-01-26T20:57:03.899Z,23.60
2023-01-26T20:59:34.200Z,23.74
2023-01-26T21:02:04.460Z,23.80
2023-01-26T21:04:37.831Z,24.08
2023-01-26T21:07:08.195Z,23.49
2023-01-26T21:09:38.548Z,23.03
2023-01-26T21:12:11.250Z,22.59
2023-01-26T21:14:43.338Z,22.36
2023-01-26T21:17:15.671Z,22.12
2023-01-26T21:19:45.681Z,21.90
2023-01-26T21:22:15.570Z,20.60
2023-01-26T21:24:47.353Z,21.01
2023-01-26T21:27:19.888Z,21.58
2023-01-26T21:29:49.859Z,21.58
2023-01-26T21:32:19.844Z,22.26
2023-01-26T21:34:49.801Z,22.29
2023-01-26T21:37:19.725Z,21.16
2023-01-26T21:39:49.722Z,21.04
2023-01-26T21:42:22.291Z,21.83
2023-01-26T21:45:04.632Z,22.51
2023-01-26T21:47:34.620Z,22.05
2023-01-26T21:50:04.706Z,21.78
2023-01-26T21:52:47.099Z,21.62
2023-01-26T21:55:17.402Z,21.56
2023-01-26T21:58:02.403Z,21.88
2023-01-26T22:00:33.047Z,20.92
2023-01-26T22:03:03.299Z,21.02
2023-01-26T22:05:33.159Z,20.77
2023-01-26T22:08:03.051Z,20.62
2023-01-26T22:10:32.961Z,21.07
2023-01-26T22:13:08.463Z,20.70
2023-01-26T22:15:38.503Z,20.66
2023-01-26T22:18:08.405Z,21.28
2023-01-26T22:20:38.236Z,20.63
2023-01-26T22:23:08.256Z,20.57
2023-01-26T22:25:39.802Z,20.83
2023-01-26T22:28:12.328Z,21.05
2023-01-26T22:30:42.611Z,20.78
2023-01-26T22:33:12.694Z,21.06
2023-01-26T22:35:42.554Z,21.27
2023-01-26T22:38:12.484Z,21.40
2023-01-26T22:40:42.535Z,21.20
2023-01-26T22:43:15.157Z,21.50
2023-01-26T22:45:45.192Z,21.09
2023-01-26T22:48:15.199Z,21.05
2023-01-26T22:50:46.503Z,21.60
2023-01-26T22:53:17.096Z,21.54
2023-01-26T22:55:47.083Z,21.05
2023-01-26T22:58:19.654Z,21.67
2023-01-26T23:00:49.602Z,21.85
2023-01-26T23:03:19.641Z,22.77
2023-01-26T23:05:49.528Z,22.22
2023-01-26T23:08:19.467Z,21.81
2023-01-26T23:10:49.345Z,20.92
2023-01-26T23:13:22.089Z,21.81
2023-01-26T23:15:52.017Z,21.68
2023-01-26T23:18:21.915Z,22.02
2023-01-26T23:20:51.830Z,22.37
2023-01-26T23:23:22.675Z,22.67
2023-01-26T23:25:55.389Z,22.71
2023-01-26T23:28:31.016Z,22.93
2023-01-26T23:31:02.103Z,22.66
2023-01-26T23:33:34.621Z,22.33
2023-01-26T23:36:05.414Z,22.57
2023-01-26T23:38:35.886Z,22.05
2023-01-26T23:41:06.011Z,22.78
2023-01-26T23:43:38.536Z,22.49
2023-01-26T23:46:10.649Z,23.01
2023-01-26T23:48:40.902Z,22.23
2023-01-26T23:51:13.791Z,23.45
2023-01-26T23:53:43.694Z,23.35
2023-01-26T23:56:17.955Z,23.36
2023-01-26T23:58:50.408Z,22.61
